createdAt,value
2023-03-26T00:01:23.901Z,74.42
2023-03-26T00:03:57.969Z,74.68
2023-03-26T00:06:28.771Z,74.24
2023-03-26T00:08:58.964Z,74.66
2023-03-26T00:11:35.893Z,75.18
2023-03-26T00:14:07.541Z,75.00
2023-03-26T00:16:34.402Z,75.34
2023-03-26T00:19:04.741Z,75.31
2023-03-26T00:21:36.672Z,75.33
2023-03-26T00:24:09.471Z,75.35
2023-03-26T00:26:38.443Z,75.31
2023-03-26T00:29:09.882Z,75.46
2023-03-26T00:31:39.822Z,75.61
2023-03-26T00:34:06.949Z,75.52
2023-03-26T00:36:35.999Z,75.46
2023-03-26T00:39:06.250Z,75.45
2023-03-26T00:41:37.135Z,75.49
2023-03-26T00:44:06.715Z,75.44
2023-03-26T00:46:39.907Z,75.52
2023-03-26T00:49:35.555Z,75.70
2023-03-26T00:52:03.106Z,75.71
2023-03-26T00:54:29.812Z,75.89
2023-03-26T00:56:56.375Z,75.93
2023-03-26T01:00:42.302Z,75.90
2023-03-26T01:06:08.858Z,75.73
2023-03-26T01:08:42.778Z,75.64
2023-03-26T01:11:34.225Z,75.91
2023-03-26T01:14:14.754Z,76.08
2023-03-26T01:16:46.369Z,76.07
2023-03-26T01:19:22.895Z,75.84
2023-03-26T01:21:49.765Z,76.20
2023-03-26T01:24:16.628Z,76.15
2023-03-26T01:27:02.624Z,76.11
2023-03-26T01:29:32.531Z,75.88
2023-03-26T01:32:32.165Z,76.16
2023-03-26T01:35:13.109Z,76.61
2023-03-26T01:38:17.358Z,76.33
2023-03-26T01:41:27.261Z,76.26
2023-03-26T01:44:04.390Z,75.53
2023-03-26T01:46:36.794Z,75.70
2023-03-26T01:49:05.837Z,76.28
2023-03-26T01:51:35.836Z,76.19
2023-03-26T01:54:24.399Z,76.58
2023-03-26T01:56:57.378Z,76.35
2023-03-26T01:59:36.067Z,76.55
2023-03-26T02:02:14.366Z,76.82
2023-03-26T02:04:41.184Z,77.44
2023-03-26T02:07:21.204Z,77.67
2023-03-26T02:09:57.223Z,77.31
2023-03-26T02:12:24.991Z,76.60
2023-03-26T02:14:52.248Z,75.88
2023-03-26T02:17:24.621Z,76.49
2023-03-26T02:19:57.148Z,75.64
2023-03-26T02:22:49.447Z,75.66
2023-03-26T02:25:50.826Z,76.23
2023-03-26T02:28:29.315Z,76.53
2023-03-26T02:31:18.728Z,76.22
2023-03-26T02:34:06.750Z,76.00
2023-03-26T02:36:38.815Z,76.42
2023-03-26T02:39:40.923Z,76.57
2023-03-26T02:44:56.659Z,75.98
2023-03-26T02:47:38.708Z,76.03
2023-03-26T02:50:28.158Z,75.52
2023-03-26T02:52:59.670Z,75.77
2023-03-26T02:55:52.650Z,76.09
2023-03-26T02:58:53.485Z,76.27
2023-03-26T03:01:26.065Z,76.40
2023-03-26T03:04:41.490Z,76.21
2023-03-26T03:07:24.659Z,76.28
2023-03-26T03:10:21.633Z,76.05
2023-03-26T03:13:16.391Z,76.24
2023-03-26T03:16:12.514Z,76.25
2023-03-26T03:18:48.952Z,76.22
2023-03-26T03:21:42.352Z,76.15
2023-03-26T03:24:20.880Z,76.13
2023-03-26T03:27:07.266Z,76.05
2023-03-26T03:30:11.146Z,75.87
2023-03-26T03:32:44.816Z,76.04
2023-03-26T03:35:49.750Z,75.85
2023-03-26T03:38:17.780Z,75.93
2023-03-26T03:40:54.463Z,76.11
2023-03-26T03:44:01.612Z,76.40
2023-03-26T03:46:40.722Z,76.44
2023-03-26T03:49:27.318Z,76.15
2023-03-26T03:52:41.031Z,76.11
2023-03-26T03:55:48.242Z,76.09
2023-03-26T03:58:44.577Z,76.33
2023-03-26T04:15:07.894Z,80.68
2023-03-26T04:31:50.867Z,83.32
2023-03-26T04:34:46.625Z,83.56
2023-03-26T04:38:12.986Z,84.03
2023-03-26T04:44:09.984Z,83.94
2023-03-26T04:46:43.982Z,83.97
2023-03-26T04:52:50.012Z,84.12
2023-03-26T04:56:04.937Z,84.27
2023-03-26T05:01:49.379Z,84.62
2023-03-26T05:04:34.353Z,84.69
2023-03-26T05:07:52.564Z,84.66
2023-03-26T05:10:45.139Z,84.48
2023-03-26T05:20:59.561Z,84.21
2023-03-26T05:24:05.180Z,84.42
2023-03-26T05:26:58.975Z,84.30
2023-03-26T05:33:24.293Z,84.22
2023-03-26T05:36:34.336Z,84.10
2023-03-26T05:39:16.586Z,84.02
2023-03-26T05:48:51.526Z,84.13
2023-03-26T05:52:05.159Z,83.94
2023-03-26T05:55:21.353Z,84.33
2023-03-26T06:02:00.747Z,85.42
2023-03-26T06:04:57.314Z,85.95
2023-03-26T06:07:50.151Z,86.40
2023-03-26T06:10:30.184Z,87.15
2023-03-26T06:13:05.848Z,88.49
2023-03-26T06:15:45.846Z,89.26
2023-03-26T06:18:12.912Z,90.07
2023-03-26T06:21:45.165Z,90.57
2023-03-26T06:24:27.850Z,91.25
2023-03-26T06:27:03.619Z,91.97
2023-03-26T06:33:16.950Z,93.06
2023-03-26T06:39:13.120Z,93.64
2023-03-26T06:41:56.554Z,93.76
2023-03-26T06:44:59.364Z,93.79
2023-03-26T06:47:54.348Z,93.98
2023-03-26T06:50:37.051Z,93.96
2023-03-26T06:53:12.178Z,93.97
2023-03-26T06:56:00.095Z,93.75
2023-03-26T06:58:36.137Z,93.77
2023-03-26T07:01:09.282Z,93.75
2023-03-26T07:03:36.091Z,93.77
2023-03-26T07:06:17.569Z,93.90
2023-03-26T07:11:47.468Z,93.92
2023-03-26T07:14:13.982Z,94.03
2023-03-26T07:17:01.242Z,94.03
2023-03-26T07:19:40.631Z,94.03
2023-03-26T07:22:24.060Z,94.12
2023-03-26T07:25:07.469Z,94.10
2023-03-26T07:28:18.948Z,93.94
2023-03-26T07:31:02.112Z,93.89
2023-03-26T07:33:44.718Z,94.05
2023-03-26T07:36:17.328Z,94.17
2023-03-26T07:38:49.783Z,94.27
2023-03-26T07:41:59.101Z,94.37
2023-03-26T07:44:44.401Z,94.60
2023-03-26T07:47:34.843Z,94.66
2023-03-26T07:50:03.039Z,94.56
2023-03-26T07:52:41.960Z,94.61
2023-03-26T07:55:13.462Z,94.70
2023-03-26T07:58:00.938Z,94.78
2023-03-26T08:00:44.107Z,94.85
2023-03-26T08:03:42.563Z,95.10
2023-03-26T08:06:22.905Z,95.28
2023-03-26T08:09:06.239Z,95.40
2023-03-26T08:11:53.681Z,95.48
2023-03-26T08:14:54.138Z,95.63
2023-03-26T08:17:35.274Z,95.50
2023-03-26T08:20:12.096Z,95.46
2023-03-26T08:22:51.564Z,95.51
2023-03-26T08:25:24.411Z,95.64
2023-03-26T08:28:25.412Z,95.65
2023-03-26T08:30:55.166Z,95.78
2023-03-26T08:33:28.182Z,95.88
2023-03-26T08:35:54.750Z,95.92
2023-03-26T08:38:21.391Z,96.09
2023-03-26T08:41:17.030Z,96.19
2023-03-26T08:44:17.274Z,96.28
2023-03-26T08:47:12.122Z,96.34
2023-03-26T08:50:15.577Z,96.45
2023-03-26T08:53:09.195Z,96.50
2023-03-26T08:55:53.684Z,96.53
2023-03-26T08:58:38.473Z,96.46
2023-03-26T09:01:30.039Z,96.49
2023-03-26T09:04:34.434Z,96.43
2023-03-26T09:07:31.599Z,96.19
2023-03-26T09:10:23.023Z,96.11
2023-03-26T09:12:56.894Z,95.45
2023-03-26T09:15:42.409Z,95.58
2023-03-26T09:18:55.156Z,95.76
2023-03-26T09:21:59.205Z,95.86
2023-03-26T09:25:21.583Z,95.72
2023-03-26T09:28:05.018Z,95.63
2023-03-26T09:30:55.034Z,95.30
2023-03-26T09:33:37.068Z,94.73
2023-03-26T09:36:52.999Z,94.57
2023-03-26T09:39:36.079Z,95.01
2023-03-26T09:42:24.504Z,95.19
2023-03-26T09:45:10.195Z,94.74
2023-03-26T09:47:58.580Z,95.15
2023-03-26T09:51:15.718Z,95.32
2023-03-26T09:53:54.577Z,95.29
2023-03-26T09:56:57.846Z,95.20
2023-03-26T09:59:55.006Z,95.10
2023-03-26T10:02:56.241Z,95.03
2023-03-26T10:09:12.213Z,95.08
2023-03-26T10:12:17.809Z,95.02
2023-03-26T10:14:58.811Z,95.02
2023-03-26T10:17:56.715Z,94.74
2023-03-26T10:20:33.537Z,94.43
2023-03-26T10:23:22.935Z,94.76
2023-03-26T10:26:06.287Z,94.70
2023-03-26T10:28:52.896Z,94.72
2023-03-26T10:31:52.240Z,94.60
2023-03-26T10:34:29.103Z,94.25
2023-03-26T10:36:56.455Z,94.34
2023-03-26T10:39:48.001Z,94.16
2023-03-26T10:42:33.149Z,93.69
2023-03-26T10:45:14.402Z,93.87
2023-03-26T10:48:29.403Z,93.70
2023-03-26T10:51:28.206Z,93.70
2023-03-26T10:54:05.956Z,93.46
2023-03-26T10:56:46.606Z,93.31
2023-03-26T10:59:17.497Z,93.47
2023-03-26T11:01:54.079Z,93.43
2023-03-26T11:04:55.638Z,93.37
2023-03-26T11:07:59.580Z,93.49
2023-03-26T11:11:24.797Z,92.80
2023-03-26T11:14:21.352Z,91.90
2023-03-26T11:17:40.072Z,91.00
2023-03-26T11:20:20.601Z,89.83
2023-03-26T11:23:10.695Z,89.83
2023-03-26T11:25:52.681Z,89.52
2023-03-26T11:28:39.434Z,88.85
2023-03-26T11:31:15.007Z,88.88
2023-03-26T11:33:47.203Z,88.44
2023-03-26T11:36:19.541Z,88.68
2023-03-26T11:38:55.529Z,88.20
2023-03-26T11:41:28.185Z,88.19
2023-03-26T11:44:02.412Z,87.98
2023-03-26T11:46:29.198Z,88.53
2023-03-26T11:48:59.410Z,88.13
2023-03-26T11:51:37.990Z,88.22
2023-03-26T11:54:11.382Z,88.32
2023-03-26T11:57:05.936Z,88.62
2023-03-26T11:59:53.098Z,88.45
2023-03-26T12:02:35.680Z,88.41
2023-03-26T12:05:12.574Z,87.88
2023-03-26T12:07:46.904Z,86.36
2023-03-26T12:10:37.980Z,86.55
2023-03-26T12:13:26.569Z,86.47
2023-03-26T12:16:10.154Z,86.41
2023-03-26T12:18:38.164Z,86.66
2023-03-26T12:21:11.425Z,86.74
2023-03-26T12:23:42.426Z,86.29
2023-03-26T12:26:34.567Z,85.83
2023-03-26T12:29:11.485Z,85.54
2023-03-26T12:32:05.856Z,84.84
2023-03-26T12:34:39.479Z,84.13
2023-03-26T12:37:08.338Z,83.47
2023-03-26T12:40:07.431Z,82.73
2023-03-26T12:44:49.933Z,82.15
2023-03-26T12:45:21.728Z,81.62
2023-03-26T12:47:58.656Z,80.91
2023-03-26T12:50:51.529Z,79.58
2023-03-26T12:53:58.491Z,79.93
2023-03-26T12:56:36.870Z,80.28
2023-03-26T12:59:29.348Z,79.85
2023-03-26T13:02:08.194Z,80.71
2023-03-26T13:05:04.959Z,80.28
2023-03-26T13:07:58.773Z,81.29
2023-03-26T13:10:32.414Z,80.64
2023-03-26T13:13:32.816Z,81.33
2023-03-26T13:16:04.041Z,79.87
2023-03-26T13:18:45.902Z,79.79
2023-03-26T13:21:33.433Z,79.66
2023-03-26T13:24:09.118Z,79.08
2023-03-26T13:26:57.564Z,79.96
2023-03-26T13:29:59.616Z,80.13
2023-03-26T13:32:57.243Z,80.18
2023-03-26T13:35:51.843Z,78.88
2023-03-26T13:39:14.374Z,78.83
2023-03-26T13:42:04.407Z,78.01
2023-03-26T13:45:05.868Z,78.67
2023-03-26T13:47:41.095Z,78.92
2023-03-26T13:50:18.344Z,78.93
2023-03-26T13:53:02.001Z,78.96
2023-03-26T13:55:39.967Z,78.63
2023-03-26T13:58:17.056Z,78.48
2023-03-26T14:01:02.257Z,78.62
2023-03-26T14:03:52.930Z,77.42
2023-03-26T14:06:28.467Z,76.99
2023-03-26T14:09:02.595Z,76.47
2023-03-26T14:11:37.594Z,75.46
2023-03-26T14:14:13.172Z,74.36
2023-03-26T14:16:45.811Z,73.79
2023-03-26T14:19:57.152Z,75.08
2023-03-26T14:22:45.595Z,75.34
2023-03-26T14:25:35.923Z,76.09
2023-03-26T14:28:06.652Z,75.77
2023-03-26T14:31:04.631Z,75.43
2023-03-26T14:34:19.469Z,75.16
2023-03-26T14:37:15.850Z,73.56
2023-03-26T14:40:28.336Z,73.81
2023-03-26T14:43:16.639Z,73.82
2023-03-26T14:46:07.487Z,74.11
2023-03-26T14:48:39.828Z,75.01
2023-03-26T14:51:34.245Z,74.94
2023-03-26T14:54:08.586Z,74.84
2023-03-26T14:57:06.194Z,74.93
2023-03-26T14:59:51.570Z,74.95
2023-03-26T15:02:51.012Z,75.23
2023-03-26T15:05:40.282Z,75.65
2023-03-26T15:08:33.706Z,75.17
2023-03-26T15:11:20.929Z,74.65
2023-03-26T15:14:04.002Z,74.76
2023-03-26T15:16:45.911Z,74.75
2023-03-26T15:19:40.781Z,74.31
2023-03-26T15:22:31.303Z,75.19
2023-03-26T15:25:23.369Z,74.87
2023-03-26T15:28:21.600Z,75.62
2023-03-26T15:31:24.095Z,76.75
2023-03-26T15:34:14.678Z,78.03
2023-03-26T15:36:47.204Z,78.82
2023-03-26T15:39:30.164Z,79.40
2023-03-26T15:42:38.092Z,79.87
2023-03-26T15:45:31.217Z,80.73
2023-03-26T15:48:12.979Z,80.05
2023-03-26T15:50:54.532Z,80.35
2023-03-26T15:53:35.217Z,79.49
2023-03-26T15:56:18.665Z,79.68
2023-03-26T15:59:00.695Z,79.66
2023-03-26T16:01:51.438Z,78.50
2023-03-26T16:04:32.477Z,78.42
2023-03-26T16:07:28.922Z,78.97
2023-03-26T16:10:28.942Z,78.81
2023-03-26T16:13:20.123Z,79.18
2023-03-26T16:15:56.410Z,78.50
2023-03-26T16:18:35.879Z,78.48
2023-03-26T16:21:31.336Z,78.63
2023-03-26T16:24:10.170Z,78.28
2023-03-26T16:26:43.119Z,78.31
2023-03-26T16:29:18.836Z,78.16
2023-03-26T16:32:17.408Z,78.20
2023-03-26T16:34:53.213Z,78.64
2023-03-26T16:37:40.701Z,79.60
2023-03-26T16:40:16.436Z,79.65
2023-03-26T16:43:18.244Z,80.26
2023-03-26T16:45:44.867Z,80.25
2023-03-26T16:48:24.807Z,80.23
2023-03-26T16:51:03.711Z,80.12
2023-03-26T16:53:49.901Z,79.97
2023-03-26T16:56:26.110Z,79.58
2023-03-26T16:58:58.631Z,79.98
2023-03-26T17:01:43.540Z,79.86
2023-03-26T17:04:19.180Z,80.01
2023-03-26T17:06:56.473Z,80.04
2023-03-26T17:09:28.732Z,80.41
2023-03-26T17:12:19.283Z,80.39
2023-03-26T17:15:08.218Z,80.35
2023-03-26T17:17:40.532Z,80.95
2023-03-26T17:20:40.910Z,81.02
2023-03-26T17:23:29.009Z,81.39
2023-03-26T17:26:16.521Z,82.04
2023-03-26T17:28:58.740Z,82.82
2023-03-26T17:31:35.306Z,83.29
2023-03-26T17:34:34.263Z,84.02
2023-03-26T17:37:04.621Z,84.79
2023-03-26T17:39:40.383Z,84.91
2023-03-26T17:42:16.102Z,84.62
2023-03-26T17:44:44.640Z,84.60
2023-03-26T17:47:19.600Z,84.80
2023-03-26T17:49:49.598Z,84.69
2023-03-26T17:52:25.203Z,84.54
2023-03-26T17:57:45.761Z,84.36
2023-03-26T18:00:19.445Z,83.70
2023-03-26T18:02:53.992Z,83.24
2023-03-26T18:05:21.868Z,83.68
2023-03-26T18:08:01.997Z,83.10
2023-03-26T18:10:49.556Z,82.73
2023-03-26T18:13:47.239Z,82.24
2023-03-26T18:16:18.509Z,81.93
2023-03-26T18:18:57.573Z,81.55
2023-03-26T18:21:37.033Z,81.02
2023-03-26T18:24:05.607Z,80.76
2023-03-26T18:26:41.577Z,80.04
2023-03-26T18:29:26.054Z,78.80
2023-03-26T18:32:17.374Z,78.97
2023-03-26T18:34:49.958Z,78.93
2023-03-26T18:37:19.636Z,78.90
2023-03-26T18:40:11.875Z,78.95
2023-03-26T18:42:40.770Z,79.33
2023-03-26T18:45:25.287Z,79.73
2023-03-26T18:47:54.596Z,79.91
2023-03-26T18:50:27.775Z,80.03
2023-03-26T18:52:58.103Z,79.88
2023-03-26T18:55:27.660Z,79.78
2023-03-26T18:57:54.136Z,79.98
2023-03-26T19:00:23.481Z,79.37
2023-03-26T19:03:12.800Z,79.51
2023-03-26T19:05:39.529Z,79.95
2023-03-26T19:08:06.682Z,78.55
2023-03-26T19:10:33.661Z,78.32
2023-03-26T19:13:02.222Z,78.71
2023-03-26T19:15:33.914Z,78.35
2023-03-26T19:18:07.292Z,78.20
2023-03-26T19:20:43.796Z,77.91
2023-03-26T19:23:15.906Z,78.29
2023-03-26T19:25:48.363Z,77.43
2023-03-26T19:28:24.899Z,77.29
2023-03-26T19:31:19.976Z,76.88
2023-03-26T19:34:13.806Z,74.36
2023-03-26T19:37:01.401Z,73.85
2023-03-26T19:39:47.128Z,73.44
2023-03-26T19:42:17.770Z,73.86
2023-03-26T19:44:44.494Z,72.88
2023-03-26T19:47:32.110Z,72.69
2023-03-26T19:50:28.942Z,72.79
2023-03-26T19:53:16.187Z,73.37
2023-03-26T19:55:53.951Z,73.53
2023-03-26T19:58:21.228Z,73.61
2023-03-26T20:00:47.692Z,73.66
2023-03-26T20:03:16.965Z,73.09
2023-03-26T20:05:43.662Z,73.75
2023-03-26T20:50:24.812Z,71.41
2023-03-26T20:52:54.600Z,71.83
2023-03-26T20:55:54.883Z,71.15
2023-03-26T20:58:36.174Z,71.31
2023-03-26T21:01:15.640Z,71.02
2023-03-26T21:03:49.122Z,70.86
2023-03-26T21:06:22.493Z,70.36
2023-03-26T21:09:31.428Z,70.22
2023-03-26T21:12:50.799Z,69.67
2023-03-26T21:15:36.383Z,70.17
2023-03-26T21:21:26.025Z,69.96
2023-03-26T21:24:21.708Z,69.59
2023-03-26T21:26:58.706Z,69.40
2023-03-26T21:32:55.470Z,69.11
2023-03-26T21:35:55.535Z,69.06
2023-03-26T21:38:58.551Z,68.86
2023-03-26T21:45:54.981Z,68.33
2023-03-26T21:48:38.250Z,67.60
2023-03-26T21:51:23.608Z,67.06
2023-03-26T21:54:14.421Z,66.41
2023-03-26T21:57:29.188Z,66.80
2023-03-26T22:06:34.668Z,67.01
2023-03-26T22:09:13.862Z,67.46
2023-03-26T22:11:50.277Z,68.37
2023-03-26T22:14:40.472Z,67.82
2023-03-26T22:17:54.342Z,67.85
2023-03-26T22:20:22.180Z,68.31
2023-03-26T22:22:55.814Z,67.38
2023-03-26T22:26:12.190Z,66.91
2023-03-26T22:56:44.954Z,69.29
2023-03-26T23:00:01.380Z,69.70
2023-03-26T23:18:34.897Z,70.35
